This is the latest recevied weather packets stored in our database for station/object K7AEL. If no packets are shown the sender has not sent any weather packets the latest 10 day(s).
| Time | Temp. | Humidity | Pressure | Rain* | Wind** | Luminosity | Snow |
|---|---|---|---|---|---|---|---|
| 1777285515 | 12.78° C | 44% | 1014.1 hPa | 0 mm | - | 0 W/m² | - |
| 1777285212 | 12.22° C | 44% | 1014 hPa | 0 mm | - | 0 W/m² | - |
| 1777284910 | 12.22° C | 45% | 1014.1 hPa | 0 mm | - | 0 W/m² | - |
| 1777284606 | 12.22° C | 46% | 1014.1 hPa | 0 mm | - | 0 W/m² | - |
| 1777284303 | 12.22° C | 46% | 1013.9 hPa | 0 mm | - | 0 W/m² | - |
| 1777282182 | 12.78° C | 45% | 1014 hPa | 0 mm | - | 0 W/m² | - |
| 1777281880 | 12.78° C | 46% | 1014 hPa | 0 mm | - | 0 W/m² | - |
| 1777281577 | 12.78° C | 46% | 1014.2 hPa | 0 mm | - | 0 W/m² | - |
| 1777281273 | 12.22° C | 47% | 1013.9 hPa | 0 mm | - | 0 W/m² | - |
| 1777280667 | 13.33° C | 45% | 1014.1 hPa | 0 mm | - | 0 W/m² | - |
| 1777280364 | 13.33° C | 44% | 1014.1 hPa | 0 mm | - | 0 W/m² | - |
| 1777280060 | 13.33° C | 45% | 1014.1 hPa | 0 mm | - | 0 W/m² | - |
| 1777279757 | 12.78° C | 46% | 1014.1 hPa | 0 mm | - | 0 W/m² | - |
| 1777279455 | 13.33° C | 45% | 1014 hPa | 0 mm | - | 0 W/m² | - |
| 1777279152 | 12.78° C | 45% | 1014.2 hPa | 0 mm | - | 0 W/m² | - |
| 1777278848 | 13.33° C | 45% | 1014.2 hPa | 0 mm | - | 0 W/m² | - |
| 1777278545 | 12.78° C | 46% | 1014.2 hPa | 0 mm | - | 0 W/m² | - |
| 1777278241 | 12.78° C | 47% | 1014.2 hPa | 0 mm | - | 0 W/m² | - |
| 1777277938 | 12.78° C | 48% | 1014.5 hPa | 0 mm | - | 0 W/m² | - |
| 1777277634 | 13.33° C | 45% | 1014.5 hPa | 0 mm | - | 0 W/m² | - |
| 1777277330 | 13.33° C | 44% | 1014.5 hPa | 0 mm | - | 0 W/m² | - |
| 1777277026 | 12.78° C | 47% | 1014.7 hPa | 0 mm | - | 0 W/m² | - |
| 1777276721 | 12.78° C | 46% | 1014.7 hPa | 0 mm | - | 0 W/m² | - |
| 1777276114 | 13.33° C | 46% | 1014.8 hPa | 0 mm | - | 0 W/m² | - |
| 1777275510 | 13.89° C | 45% | 1014.8 hPa | 0 mm | - | 0 W/m² | - |
* Rain latest hour (hover to see other rain measurements)
** Current wind speed in m/s (hover to see current wind gust speed)